Terminal Aerodrome Forecast
Issued by NWS

Home | Current Version | Previous Version | Text Only | Print | Product List | Glossary On
Versions: 1 2 3 4 5 6 7 8 9 10 11 12 13 14 15 16 17
000
FTUS43 KGRB 231100
TAFATW
TAF
KATW 231129Z 2312/2412 34006KT P6SM SCT050
     FM231500 01010G17KT P6SM SCT045 SCT070
      TEMPO 2317/2321 BKN045 BKN070
     FM232300 05007KT P6SM SKC=

USA.gov is the U.S. government's official web portal to all federal, state and local government web resources and services.